Grand Prairie, TX (75050)

6:51 PM CDT on July 27, 2016 (GMT -0500)
Sherwood Forest | | Change Station

Elev 512 ft 32.82 °N, 96.99 °W | Updated 4 seconds ago

Mostly Cloudy
Mostly Cloudy
88.4 °F
Feels Like 97 °F
N
0.0
Wind Variable Wind from East
Gusts 7.0 mph

Today
High -- | Low -- °F
--% Chance of Precip.
Yesterday
High -- | Low -- °F
Precip. -- in
Pressure 29.91 in
Visibility 4.0 miles
Clouds Scattered Clouds 800 ft
Mostly Cloudy 6000 ft
Heat Index 97 °F
Dew Point 73 °F
Humidity 61%
Rainfall 0.00 in
Snow Depth Not available.
6:38 AM 8:29 PM
Last Quarter, 38% visible
METAR KGPM 272250Z 36010KT 4SM -R SCT008 BKN060 34/19 A2991
Pressure 29.91 in
Visibility 4.0 miles
Clouds Scattered Clouds 800 ft
Mostly Cloudy 6000 ft
Heat Index 97 °F
Dew Point 73 °F
Humidity 61%
Rainfall 0.00 in
Snow Depth Not available.
6:38 AM 8:29 PM
Last Quarter, 38% visible
METAR KGPM 272250Z 36010KT 4SM -R SCT008 BKN060 34/19 A2991

10-Day Weather Forecast

Almanac

Astronomy

Jul. 27, 2016 Rise Set
Actual Time
Civil Twilight
Nautical Twilight
Astronomical Twilight
Moon
Length of Visible Light
Length of Day
Tomorrow will be .
, % of the Moon is Illuminated

Today's Extremes

State Highs State Lows

Community

WunderPhotos

Upload Photos

1,927,958 photos uploaded!

WunderBlog® & News

Nearby

Air Quality

  Air Quality AQ Index Pollutant
Not available.

Snow Depth

Station Depth Elevation

Earthquake Activity

City Distance Mag. Time & Date
Minimum magnitude displayed is 2.5.

Coastal Water Temperatures

Place Temperature

Stations

Nearby Weather Stations

Station Location Temp. Windchill Dew Point Humidity Wind Precip. Elev Updated Type
                   

Watches & Warnings

There are currently no watches in effect.